Time;durP1;ratioP1;P1;durP2;ratioP2;P2;SDS_P1;SDS_P2;PMS_P1;PMS_P2;Temp;Humidity;BMP_temperature;BMP_pressure;BME280_temperature;BME280_humidity;BME280_pressure;Samples;Min_cycle;Max_cycle;Signal;HPM_P1;HPM_P2
2023/04/18 00:01:18;;;;;;;2.50;2.30;;;;;;;22.65;39.19;102531.41;5028103;27;97025;-74
2023/04/18 00:03:45;;;;;;;2.47;2.28;;;;;;;22.64;39.26;102538.75;5019989;27;96624;-75
2023/04/18 00:06:12;;;;;;;2.40;2.20;;;;;;;22.65;39.43;102536.88;5024960;27;96640;-75
2023/04/18 00:08:39;;;;;;;2.30;2.10;;;;;;;22.65;39.26;102534.16;5023800;27;96865;-75
2023/04/18 00:11:06;;;;;;;2.50;2.30;;;;;;;22.64;39.33;102529.69;5021937;27;98431;-75
2023/04/18 00:13:32;;;;;;;2.75;2.55;;;;;;;22.65;39.49;102536.88;5029887;27;98244;-75
2023/04/18 00:15:59;;;;;;;2.67;2.47;;;;;;;22.65;39.53;102531.41;5024196;27;96856;-75
2023/04/18 00:18:26;;;;;;;2.08;1.90;;;;;;;22.64;39.13;102533.28;5005507;27;96667;-75
2023/04/18 00:20:53;;;;;;;2.30;2.10;;;;;;;22.64;39.13;102530.53;5028147;27;96862;-74
2023/04/18 00:23:21;;;;;;;2.63;2.42;;;;;;;22.63;39.08;102528.81;5026459;27;96756;-74
2023/04/18 00:25:47;;;;;;;2.50;2.30;;;;;;;22.64;39.43;102532.41;5021316;27;96775;-74
2023/04/18 00:28:14;;;;;;;2.30;2.10;;;;;;;22.62;39.18;102524.34;5023554;27;96778;-75
2023/04/18 00:30:40;;;;;;;2.20;2.00;;;;;;;22.63;39.18;102528.81;5024998;27;97220;-75
2023/04/18 00:33:07;;;;;;;2.72;2.47;;;;;;;22.63;39.45;102528.81;5025996;27;96780;-74
2023/04/18 00:35:36;;;;;;;2.40;2.20;;;;;;;22.63;39.28;102525.22;5026974;27;96901;-75
2023/04/18 00:38:03;;;;;;;2.30;2.10;;;;;;;22.62;39.55;102520.75;5020226;27;96572;-75
2023/04/18 00:40:29;;;;;;;2.58;2.30;;;;;;;22.62;39.14;102523.50;5021179;27;97690;-76
2023/04/18 00:42:56;;;;;;;2.25;2.05;;;;;;;22.63;39.26;102525.22;5021878;27;97176;-75
2023/04/18 00:45:23;;;;;;;2.60;2.08;;;;;;;22.63;39.01;102527.94;5019364;27;97002;-75
2023/04/18 00:47:49;;;;;;;2.42;2.22;;;;;;;22.62;39.07;102521.63;5025800;27;96844;-75
2023/04/18 00:50:16;;;;;;;2.80;2.50;;;;;;;22.63;39.37;102517.00;5026907;27;97520;-75
2023/04/18 00:52:44;;;;;;;2.50;2.30;;;;;;;22.62;39.13;102516.13;5025268;27;96845;-75
2023/04/18 00:55:11;;;;;;;2.50;2.30;;;;;;;22.62;39.30;102521.63;5024874;27;97159;-75
2023/04/18 00:57:37;;;;;;;3.15;2.10;;;;;;;22.62;39.26;102521.63;5022050;27;96570;-75
2023/04/18 01:00:09;;;;;;;2.60;2.40;;;;;;;22.62;39.13;102521.63;5022894;27;97195;-75
2023/04/18 01:02:36;;;;;;;2.30;2.10;;;;;;;22.61;39.25;102522.63;5025501;27;97343;-74
2023/04/18 01:05:04;;;;;;;2.60;2.40;;;;;;;22.61;39.34;102528.09;5023339;27;97180;-75
2023/04/18 01:07:36;;;;;;;2.38;2.17;;;;;;;22.62;39.28;102528.97;5023308;27;96755;-75
2023/04/18 01:10:04;;;;;;;2.30;2.10;;;;;;;22.61;39.59;102524.50;5019484;27;98133;-75
2023/04/18 01:12:30;;;;;;;2.58;2.38;;;;;;;22.60;39.35;102525.50;5016895;27;96788;-75
2023/04/18 01:14:59;;;;;;;2.33;2.13;;;;;;;22.61;39.32;102532.72;5026071;27;96911;-75
2023/04/18 01:17:28;;;;;;;2.30;2.00;;;;;;;22.61;39.10;102529.97;5021011;27;96696;-75
2023/04/18 01:19:55;;;;;;;2.20;2.00;;;;;;;22.59;39.14;102521.03;5022011;27;97147;-75
2023/04/18 01:22:22;;;;;;;2.30;2.10;;;;;;;22.60;39.49;102526.38;5016733;27;98035;-75
2023/04/18 01:24:49;;;;;;;2.38;2.17;;;;;;;22.60;39.00;102522.78;5025069;27;97017;-75
2023/04/18 01:27:15;;;;;;;2.85;2.53;;;;;;;22.59;39.07;102521.91;5024858;27;96947;-75
2023/04/18 01:29:42;;;;;;;2.60;2.40;;;;;;;22.58;39.20;102517.44;5026562;27;97815;-75
2023/04/18 01:32:08;;;;;;;2.70;2.40;;;;;;;22.59;39.33;102515.56;5018512;27;97196;-75
2023/04/18 01:34:35;;;;;;;2.22;2.00;;;;;;;22.59;39.46;102515.56;5026429;27;96940;-74
2023/04/18 01:37:04;;;;;;;2.65;2.45;;;;;;;22.58;39.21;102509.22;5023984;27;96968;-74
2023/04/18 01:39:31;;;;;;;2.33;2.13;;;;;;;22.58;39.30;102514.69;4997380;27;100187;-74
2023/04/18 01:42:00;;;;;;;2.33;2.00;;;;;;;22.58;39.04;102513.84;5014653;27;99690;-75
2023/04/18 01:44:26;;;;;;;2.30;1.80;;;;;;;22.57;39.29;102510.25;5020654;27;98467;-75
2023/04/18 01:46:53;;;;;;;2.38;2.17;;;;;;;22.57;39.41;102504.75;5028694;27;98703;-74
2023/04/18 01:49:19;;;;;;;2.45;2.03;;;;;;;22.56;39.26;102508.50;5021845;27;99722;-75
2023/04/18 01:51:48;;;;;;;2.50;2.13;;;;;;;22.57;39.42;102507.50;5016944;27;98460;-75
2023/04/18 01:54:14;;;;;;;2.30;2.10;;;;;;;22.57;39.38;102507.50;5021344;27;97148;-75
2023/04/18 01:56:42;;;;;;;2.30;2.10;;;;;;;22.57;39.77;102501.16;5023767;27;96873;-75
2023/04/18 01:59:08;;;;;;;2.30;2.10;;;;;;;22.57;39.27;102492.94;5025149;27;101051;-75
2023/04/18 02:01:35;;;;;;;2.10;1.90;;;;;;;22.57;39.23;102490.19;5022607;27;100012;-75
2023/04/18 02:04:01;;;;;;;2.20;2.00;;;;;;;22.56;39.22;102489.34;5024412;27;96665;-75
2023/04/18 02:06:28;;;;;;;2.33;2.13;;;;;;;22.56;39.24;102496.69;5020916;27;96631;-75
2023/04/18 02:08:54;;;;;;;2.30;2.10;;;;;;;22.56;39.29;102503.03;5021462;27;97282;-76
2023/04/18 02:11:23;;;;;;;2.20;1.98;;;;;;;22.56;39.31;102488.47;5028532;27;99296;-75
2023/04/18 02:13:51;;;;;;;2.28;2.08;;;;;;;22.56;39.21;102488.47;5021170;27;97183;-75
2023/04/18 02:16:17;;;;;;;2.13;1.98;;;;;;;22.55;39.55;102489.50;5022868;27;96953;-75
2023/04/18 02:18:44;;;;;;;2.40;2.20;;;;;;;22.55;39.11;102492.22;5015628;27;100426;-74
2023/04/18 02:21:12;;;;;;;2.38;2.17;;;;;;;22.55;39.23;102486.75;5023616;27;96954;-74
2023/04/18 02:23:38;;;;;;;2.47;2.28;;;;;;;22.54;39.41;102485.88;5019869;27;97372;-75
2023/04/18 02:26:05;;;;;;;2.20;2.00;;;;;;;22.54;39.41;102485.88;5028545;27;96630;-75
2023/04/18 02:28:32;;;;;;;2.17;1.98;;;;;;;22.54;39.37;102485.88;5017200;27;97973;-75
2023/04/18 02:31:01;;;;;;;2.25;2.05;;;;;;;22.54;39.47;102485.03;5019738;27;100970;-75
2023/04/18 02:33:28;;;;;;;2.47;2.28;;;;;;;22.53;39.30;102486.91;5018555;27;96809;-75
2023/04/18 02:35:55;;;;;;;2.28;1.80;;;;;;;22.52;39.00;102483.28;5024516;27;97023;-74
2023/04/18 02:38:21;;;;;;;2.30;2.08;;;;;;;22.52;39.48;102477.81;5018668;27;97462;-74
2023/04/18 02:40:50;;;;;;;2.10;1.90;;;;;;;22.53;39.24;102484.16;5024236;27;97303;-75
2023/04/18 02:43:19;;;;;;;2.20;2.00;;;;;;;22.52;39.11;102491.50;5003988;27;96838;-75
2023/04/18 02:45:45;;;;;;;2.10;1.90;;;;;;;22.51;39.24;102484.31;5019075;27;96700;-74
2023/04/18 02:48:12;;;;;;;2.42;2.15;;;;;;;22.52;39.32;102491.50;5029104;27;96749;-75
2023/04/18 02:50:38;;;;;;;2.17;1.80;;;;;;;22.51;39.25;102483.44;5019154;27;100492;-74
2023/04/18 02:53:05;;;;;;;1.98;1.83;;;;;;;22.51;39.32;102480.72;5024019;27;96852;-75
2023/04/18 02:55:47;;;;;;;2.20;2.00;;;;;;;22.51;39.33;102480.72;5015524;27;97072;-74
2023/04/18 02:58:14;;;;;;;2.38;2.17;;;;;;;22.50;39.00;102487.19;5021684;27;97133;-75
2023/04/18 03:00:59;;;;;;;1.90;1.80;;;;;;;22.49;39.15;102480.00;5018347;27;98946;-75
2023/04/18 03:03:43;;;;;;;2.17;1.98;;;;;;;22.48;39.12;102484.59;5025365;27;97028;-75
2023/04/18 03:06:28;;;;;;;2.15;1.95;;;;;;;22.47;39.42;102488.34;5024602;27;96763;-74
2023/04/18 03:08:59;;;;;;;1.98;1.80;;;;;;;22.47;39.32;102476.53;5020702;27;97435;-75
2023/04/18 03:11:26;;;;;;;2.17;2.00;;;;;;;22.48;39.82;102472.78;5013718;27;99585;-74
2023/04/18 03:13:54;;;;;;;2.05;1.83;;;;;;;22.48;39.55;102478.25;5023662;27;96894;-74
2023/04/18 03:16:23;;;;;;;2.17;1.70;;;;;;;22.47;39.45;102482.00;5025987;27;96977;-75
2023/04/18 03:18:50;;;;;;;2.33;1.85;;;;;;;22.47;39.51;102482.00;5023313;27;100717;-75
2023/04/18 03:21:18;;;;;;;2.30;2.10;;;;;;;22.47;39.19;102488.34;5018467;27;98277;-75
2023/04/18 03:23:45;;;;;;;2.70;1.92;;;;;;;22.47;39.42;102488.34;5013694;27;96698;-74
2023/04/18 03:26:12;;;;;;;2.10;1.90;;;;;;;22.46;39.17;102483.88;5024535;27;97285;-75
2023/04/18 03:28:40;;;;;;;1.90;1.80;;;;;;;22.47;39.34;102491.09;5016784;27;96993;-75
2023/04/18 03:31:07;;;;;;;2.33;2.13;;;;;;;22.47;39.29;102492.97;5027763;27;98425;-75
2023/04/18 03:33:38;;;;;;;2.20;2.00;;;;;;;22.47;39.43;102493.81;5013304;27;96829;-75
2023/04/18 03:36:09;;;;;;;2.00;1.80;;;;;;;22.46;39.28;102489.38;5002012;27;96639;-75
2023/04/18 03:38:38;;;;;;;2.20;1.90;;;;;;;22.46;39.28;102493.97;5019395;27;99264;-75
2023/04/18 03:41:05;;;;;;;2.20;2.00;;;;;;;22.45;39.51;102487.63;5022625;27;99100;-74
2023/04/18 03:43:35;;;;;;;2.85;1.77;;;;;;;22.46;39.35;102483.03;5020855;27;96965;-74
2023/04/18 03:46:01;;;;;;;2.20;2.00;;;;;;;22.45;39.56;102493.09;5014038;27;97003;-75
2023/04/18 03:48:28;;;;;;;2.10;1.70;;;;;;;22.45;39.54;102493.09;5015379;27;99174;-75
2023/04/18 03:50:59;;;;;;;2.47;2.28;;;;;;;22.45;39.05;102495.84;5026457;27;98871;-75
2023/04/18 03:53:25;;;;;;;2.30;2.10;;;;;;;22.45;39.47;102501.31;5027628;27;96841;-75
2023/04/18 03:55:55;;;;;;;2.17;1.98;;;;;;;22.45;39.38;102497.72;5022493;27;96984;-74
2023/04/18 03:58:27;;;;;;;1.80;1.70;;;;;;;22.44;39.40;102494.13;5010007;27;97772;-74
2023/04/18 04:00:53;;;;;;;1.80;1.60;;;;;;;22.42;39.16;102487.94;5024755;27;98203;-76
2023/04/18 04:03:20;;;;;;;2.03;1.83;;;;;;;22.44;39.44;102485.03;5024301;27;96866;-74
2023/04/18 04:05:47;;;;;;;1.85;1.75;;;;;;;22.43;39.24;102492.41;5025128;27;97016;-75
2023/04/18 04:08:15;;;;;;;1.80;1.70;;;;;;;22.44;39.60;102496.00;5020385;27;97018;-75
2023/04/18 04:10:43;;;;;;;1.88;1.75;;;;;;;22.43;39.44;102506.09;5021810;27;96888;-75
2023/04/18 04:13:10;;;;;;;2.13;1.92;;;;;;;22.42;39.09;102493.41;5021168;27;96788;-74
2023/04/18 04:15:38;;;;;;;2.33;1.92;;;;;;;22.43;39.36;102495.13;5029642;27;97038;-75
2023/04/18 04:18:08;;;;;;;1.83;1.73;;;;;;;22.43;39.26;102489.66;5019748;27;99433;-74
2023/04/18 04:20:38;;;;;;;1.90;1.80;;;;;;;22.42;39.30;102498.00;5019241;27;98513;-75
2023/04/18 04:23:12;;;;;;;1.92;1.73;;;;;;;22.42;39.30;102492.53;5003313;28;96884;-75
2023/04/18 04:25:40;;;;;;;1.70;1.60;;;;;;;22.42;39.35;102500.75;5018228;27;97132;-75
2023/04/18 04:28:15;;;;;;;1.70;1.60;;;;;;;22.40;39.22;102497.28;5021590;27;98943;-75
2023/04/18 04:30:51;;;;;;;2.53;1.90;;;;;;;22.40;39.33;102491.81;5022557;27;97800;-75
2023/04/18 04:33:20;;;;;;;1.92;1.67;;;;;;;22.40;39.19;102489.09;5017878;27;96823;-74
2023/04/18 04:35:48;;;;;;;2.38;1.85;;;;;;;22.40;39.54;102498.16;5027023;27;96711;-75
2023/04/18 04:38:18;;;;;;;2.25;2.05;;;;;;;22.40;39.15;102494.56;5023552;27;97458;-76
2023/04/18 04:40:46;;;;;;;1.70;1.60;;;;;;;22.39;39.53;102490.97;5020396;27;98602;-75
2023/04/18 04:43:14;;;;;;;2.00;1.80;;;;;;;22.39;39.06;102498.31;5027209;27;96983;-75
2023/04/18 04:45:43;;;;;;;2.03;1.83;;;;;;;22.39;39.14;102503.78;5024723;27;96950;-75
2023/04/18 04:48:10;;;;;;;1.75;1.60;;;;;;;22.39;39.31;102503.78;5023642;27;99460;-75
2023/04/18 04:50:40;;;;;;;1.73;1.63;;;;;;;22.38;39.47;102508.41;5028897;27;96968;-75
2023/04/18 04:53:10;;;;;;;1.75;1.65;;;;;;;22.38;39.00;102504.78;5025806;27;96861;-75
2023/04/18 04:55:37;;;;;;;1.88;1.70;;;;;;;22.39;39.25;102509.25;5022837;27;97101;-75
2023/04/18 04:58:04;;;;;;;1.80;1.70;;;;;;;22.37;39.19;102514.88;5025175;27;96798;-74
2023/04/18 05:01:06;;;;;;;1.80;1.70;;;;;;;22.35;39.20;102514.16;5001604;27;97751;-75
2023/04/18 05:03:33;;;;;;;1.95;1.77;;;;;;;22.37;39.33;102514.00;5031546;27;96754;-75
2023/04/18 05:06:00;;;;;;;1.75;1.65;;;;;;;22.36;39.18;102510.41;5027625;27;97060;-74
2023/04/18 05:08:26;;;;;;;1.70;1.60;;;;;;;22.37;39.18;102519.50;5024264;27;96801;-75
2023/04/18 05:10:54;;;;;;;2.10;1.90;;;;;;;22.38;39.19;102513.88;5021603;27;97585;-74
2023/04/18 05:13:20;;;;;;;1.65;1.50;;;;;;;22.37;39.51;102514.00;5025314;27;96782;-75
2023/04/18 05:15:47;;;;;;;1.95;1.80;;;;;;;22.38;39.33;102515.75;5021659;27;96640;-75
2023/04/18 05:18:13;;;;;;;2.35;2.15;;;;;;;22.38;39.36;102515.75;5027306;27;97535;-75
2023/04/18 05:20:40;;;;;;;1.75;1.65;;;;;;;22.39;39.31;102517.47;5022081;27;96678;-75
2023/04/18 05:23:06;;;;;;;1.75;1.65;;;;;;;22.38;39.68;102519.34;5028506;27;97107;-75
2023/04/18 05:25:33;;;;;;;1.65;1.55;;;;;;;22.39;39.26;102514.72;5025843;27;96889;-75
2023/04/18 05:28:00;;;;;;;1.80;1.70;;;;;;;22.39;39.30;102517.47;5025232;27;97704;-75
2023/04/18 05:30:26;;;;;;;1.85;1.58;;;;;;;22.41;39.22;102523.66;5024346;27;97305;-75
2023/04/18 05:32:53;;;;;;;1.75;1.65;;;;;;;22.40;39.28;102524.69;5023417;27;96783;-74
2023/04/18 05:35:19;;;;;;;2.72;1.60;;;;;;;22.40;39.67;102528.28;5022807;27;97308;-75
2023/04/18 05:37:46;;;;;;;2.00;1.80;;;;;;;22.40;39.75;102532.88;5024131;27;97533;-74
2023/04/18 05:40:13;;;;;;;1.77;1.67;;;;;;;22.40;39.55;102528.28;5027866;27;96996;-74
2023/04/18 05:42:39;;;;;;;1.80;1.60;;;;;;;22.41;39.25;102534.63;5016917;27;96761;-74
2023/04/18 05:45:06;;;;;;;2.22;1.60;;;;;;;22.40;39.29;102541.09;5021565;27;96943;-74
2023/04/18 05:47:33;;;;;;;2.00;1.80;;;;;;;22.42;39.31;102544.56;5013184;27;96879;-75
2023/04/18 05:50:00;;;;;;;1.80;1.70;;;;;;;22.42;39.50;102544.56;5021370;27;96763;-75
2023/04/18 05:52:26;;;;;;;1.90;1.70;;;;;;;22.42;39.43;102552.78;5027603;27;97442;-75
2023/04/18 05:54:53;;;;;;;1.60;1.50;;;;;;;22.42;39.18;102547.28;5024921;27;97178;-74
2023/04/18 05:57:19;;;;;;;1.63;1.52;;;;;;;22.42;39.27;102550.03;5024094;27;97638;-74
2023/04/18 05:59:46;;;;;;;1.98;1.77;;;;;;;22.43;39.41;102552.63;5027140;27;97125;-74
2023/04/18 06:02:12;;;;;;;1.63;1.52;;;;;;;22.43;39.61;102549.88;5021342;27;96758;-75
2023/04/18 06:04:40;;;;;;;1.63;1.52;;;;;;;22.43;39.49;102549.03;5011984;27;96984;-75
2023/04/18 06:07:08;;;;;;;1.95;1.75;;;;;;;22.42;39.35;102547.28;5024425;27;97480;-74
2023/04/18 06:09:34;;;;;;;1.50;1.40;;;;;;;22.42;39.46;102555.50;5021923;27;100223;-75
2023/04/18 06:12:01;;;;;;;1.95;1.50;;;;;;;22.43;39.02;102560.84;5022691;27;96866;-74
2023/04/18 06:14:28;;;;;;;1.67;1.58;;;;;;;22.42;39.42;102552.78;5021176;27;96598;-75
2023/04/18 06:16:54;;;;;;;1.60;1.50;;;;;;;22.43;39.54;102559.97;5021190;27;96877;-75
2023/04/18 06:19:21;;;;;;;1.83;1.70;;;;;;;22.43;39.35;102560.84;5021936;27;97440;-75
2023/04/18 06:21:48;;;;;;;2.08;1.67;;;;;;;22.41;39.24;102551.91;5018359;27;98969;-75
2023/04/18 06:24:15;;;;;;;1.95;1.75;;;;;;;22.43;39.27;102565.44;5026380;27;97318;-75
2023/04/18 06:26:42;;;;;;;1.60;1.50;;;;;;;22.41;39.12;102564.72;5026820;27;98151;-75
2023/04/18 06:29:08;;;;;;;1.50;1.40;;;;;;;22.42;39.09;102563.72;5019429;27;97434;-75
2023/04/18 06:31:35;;;;;;;1.70;1.60;;;;;;;22.41;39.53;102570.19;5016846;27;97018;-75
2023/04/18 06:34:01;;;;;;;1.75;1.65;;;;;;;22.42;39.31;102571.94;5019542;27;97048;-75
2023/04/18 06:36:28;;;;;;;1.65;1.55;;;;;;;22.40;39.42;102572.06;5019158;27;96987;-75
2023/04/18 06:38:55;;;;;;;1.85;1.70;;;;;;;22.41;39.13;102570.19;5023553;27;96588;-75
2023/04/18 06:41:21;;;;;;;1.73;1.60;;;;;;;22.40;39.52;102573.94;5025771;27;97034;-75
2023/04/18 06:43:48;;;;;;;1.90;1.80;;;;;;;22.40;39.21;102580.28;5024186;27;96679;-74
2023/04/18 06:46:28;;;;;;;1.50;1.40;;;;;;;22.39;39.11;102574.97;5030924;27;98043;-74
2023/04/18 06:48:55;;;;;;;1.60;1.50;;;;;;;22.40;39.30;102576.69;5023946;27;96801;-75
2023/04/18 06:51:22;;;;;;;1.63;1.52;;;;;;;22.38;39.55;102576.84;5019882;27;96816;-75
2023/04/18 06:53:51;;;;;;;1.90;1.65;;;;;;;22.38;39.35;102579.56;5019217;27;97388;-75
2023/04/18 06:56:19;;;;;;;1.65;1.55;;;;;;;22.39;39.40;102580.44;5015059;27;98639;-75
2023/04/18 06:58:46;;;;;;;1.60;1.50;;;;;;;22.38;39.54;102578.69;5018391;27;96973;-75
2023/04/18 07:01:13;;;;;;;1.70;1.60;;;;;;;22.38;39.12;102581.44;5016577;27;97277;-75
2023/04/18 07:03:39;;;;;;;1.70;1.60;;;;;;;22.37;39.73;102588.78;5019658;27;96888;-75
2023/04/18 07:06:07;;;;;;;1.77;1.65;;;;;;;22.37;39.45;102586.06;5017035;27;97700;-75
2023/04/18 07:08:34;;;;;;;1.80;1.50;;;;;;;22.37;39.44;102583.31;5018530;27;98068;-75
2023/04/18 07:11:01;;;;;;;1.50;1.40;;;;;;;22.37;39.41;102583.31;5022968;27;96797;-76
2023/04/18 07:13:27;;;;;;;1.63;1.52;;;;;;;22.37;39.45;102588.78;5020165;27;98020;-75
2023/04/18 07:15:54;;;;;;;1.60;1.50;;;;;;;22.37;39.17;102582.44;5017600;27;97053;-76
2023/04/18 07:18:21;;;;;;;1.67;1.58;;;;;;;22.37;39.42;102587.91;5019805;27;96773;-76
2023/04/18 07:21:00;;;;;;;1.30;1.20;;;;;;;22.37;39.21;102588.78;5028114;27;96796;-76
2023/04/18 07:23:27;;;;;;;1.73;1.60;;;;;;;22.37;39.23;102582.44;5025290;27;96895;-76
2023/04/18 07:25:53;;;;;;;1.63;1.52;;;;;;;22.37;39.45;102590.66;5022720;27;97343;-75
2023/04/18 07:28:20;;;;;;;1.60;1.50;;;;;;;22.37;39.25;102587.91;5030387;27;97380;-75
2023/04/18 07:30:47;;;;;;;1.60;1.50;;;;;;;22.38;39.07;102589.66;5026959;27;96740;-75
2023/04/18 07:33:13;;;;;;;1.58;1.48;;;;;;;22.37;39.33;102587.91;5026542;27;97123;-75
2023/04/18 07:35:40;;;;;;;1.80;1.70;;;;;;;22.38;39.25;102589.66;5022152;27;96816;-75
2023/04/18 07:38:06;;;;;;;1.60;1.50;;;;;;;22.38;39.17;102601.47;5024797;27;96808;-76
2023/04/18 07:40:33;;;;;;;1.60;1.50;;;;;;;22.37;39.58;102604.34;5029562;27;96852;-76
2023/04/18 07:43:00;;;;;;;1.42;1.33;;;;;;;22.38;39.20;102596.00;5021141;27;96906;-76
2023/04/18 07:45:26;;;;;;;1.77;1.48;;;;;;;22.38;39.47;102606.09;5026756;27;97385;-76
2023/04/18 07:47:53;;;;;;;1.70;1.60;;;;;;;22.40;39.31;102604.06;5031409;27;97857;-75
2023/04/18 07:50:19;;;;;;;1.83;1.70;;;;;;;22.38;39.44;102593.25;5028390;27;96754;-76
2023/04/18 07:52:47;;;;;;;1.50;1.40;;;;;;;22.39;39.40;102613.28;5027866;27;96756;-75
2023/04/18 07:55:13;;;;;;;1.50;1.40;;;;;;;22.38;39.04;102606.09;5005495;27;98596;-76
2023/04/18 07:57:43;;;;;;;2.05;1.60;;;;;;;22.39;39.35;102603.19;5022400;27;96650;-75
2023/04/18 08:00:12;;;;;;;1.40;1.30;;;;;;;22.39;39.29;102607.81;5029448;27;96846;-75
2023/04/18 08:02:39;;;;;;;1.58;1.48;;;;;;;22.38;39.45;102606.94;5027943;27;97388;-75
2023/04/18 08:05:06;;;;;;;1.60;1.40;;;;;;;22.38;39.24;102606.94;5019711;27;97204;-76
2023/04/18 08:07:33;;;;;;;2.05;1.60;;;;;;;22.40;39.26;102615.00;5024776;27;99579;-75
2023/04/18 08:09:59;;;;;;;1.88;1.70;;;;;;;22.38;39.37;102612.41;5023445;27;97323;-75
2023/04/18 08:12:26;;;;;;;1.60;1.50;;;;;;;22.39;39.49;102605.06;5029086;27;96830;-75
2023/04/18 08:14:52;;;;;;;1.85;1.67;;;;;;;22.40;39.05;102607.66;5025411;27;97567;-75
2023/04/18 08:17:21;;;;;;;1.55;1.45;;;;;;;22.40;39.12;102612.28;5024649;27;97760;-75
2023/04/18 08:19:48;;;;;;;1.30;1.20;;;;;;;22.40;39.47;102612.28;5022009;27;96703;-75
2023/04/18 08:22:14;;;;;;;2.00;1.80;;;;;;;22.41;39.15;102611.25;5025744;27;96822;-74
2023/04/18 08:24:41;;;;;;;1.73;1.63;;;;;;;22.40;38.98;102604.06;5026158;27;97789;-74
2023/04/18 08:27:27;;;;;;;1.65;1.48;;;;;;;22.39;39.41;102616.88;5018239;27;97868;-75
2023/04/18 08:29:54;;;;;;;1.48;1.35;;;;;;;22.40;39.04;102621.34;5022909;27;97377;-74
2023/04/18 08:32:21;;;;;;;1.25;1.10;;;;;;;22.40;39.40;102610.41;5022256;27;96952;-74
2023/04/18 08:34:47;;;;;;;1.55;1.45;;;;;;;22.39;39.35;102603.19;5018605;27;99952;-75
2023/04/18 08:37:14;;;;;;;1.60;1.50;;;;;;;22.42;39.17;102611.13;5009266;27;96866;-76
2023/04/18 08:39:40;;;;;;;1.55;1.45;;;;;;;22.41;39.18;102611.25;5006744;27;96863;-75
2023/04/18 08:42:09;;;;;;;1.73;1.45;;;;;;;22.40;39.25;102607.66;5018862;27;96788;-75
2023/04/18 08:44:36;;;;;;;1.90;1.63;;;;;;;22.41;39.46;102612.13;5030381;28;98715;-75
2023/04/18 08:47:02;;;;;;;1.45;1.35;;;;;;;22.42;39.31;102607.53;5024609;27;96842;-75
2023/04/18 08:49:30;;;;;;;1.60;1.50;;;;;;;22.42;39.36;102618.47;5027210;28;96964;-76
2023/04/18 08:51:59;;;;;;;1.75;1.65;;;;;;;22.42;39.23;102608.38;5024000;27;96705;-75
2023/04/18 08:54:29;;;;;;;1.70;1.60;;;;;;;22.41;39.09;102606.66;5027192;28;98276;-75
2023/04/18 08:57:06;;;;;;;1.60;1.50;;;;;;;22.44;39.27;102605.50;5011669;28;97352;-75
2023/04/18 08:59:34;;;;;;;1.40;1.30;;;;;;;22.43;39.21;102603.78;5029198;28;96664;-75
2023/04/18 09:02:03;;;;;;;1.60;1.50;;;;;;;22.44;38.98;102605.50;5025518;27;96716;-75
2023/04/18 09:04:35;;;;;;;2.63;1.58;;;;;;;22.44;38.95;102608.25;4995886;28;99883;-75
2023/04/18 09:07:09;;;;;;;2.00;1.58;;;;;;;22.44;39.04;102605.50;5024710;28;96695;-75
2023/04/18 09:09:58;;;;;;;1.73;1.60;;;;;;;22.44;39.35;102600.03;5028002;28;96669;-75
2023/04/18 09:12:26;;;;;;;1.83;1.67;;;;;;;22.43;38.96;102603.78;5014258;28;97356;-76
2023/04/18 09:14:58;;;;;;;1.42;1.33;;;;;;;22.43;39.33;102612.00;5025737;28;98157;-76
2023/04/18 09:17:42;;;;;;;1.60;1.50;;;;;;;22.43;39.36;102603.78;5020195;28;97148;-75
2023/04/18 09:20:10;;;;;;;1.50;1.40;;;;;;;22.42;38.98;102610.25;5021302;28;97125;-75
2023/04/18 09:22:52;;;;;;;1.50;1.40;;;;;;;22.43;39.11;102610.13;4996634;28;97096;-74
2023/04/18 09:25:34;;;;;;;1.75;1.50;;;;;;;22.44;38.99;102610.97;5013147;28;96797;-75
2023/04/18 09:28:02;;;;;;;1.38;1.27;;;;;;;22.42;39.02;102611.13;5016053;28;97626;-74
2023/04/18 09:30:39;;;;;;;1.60;1.40;;;;;;;22.43;39.38;102620.19;4999843;28;97765;-75
2023/04/18 09:33:09;;;;;;;1.40;1.30;;;;;;;22.42;39.14;102618.47;5021836;28;96758;-75
2023/04/18 09:35:36;;;;;;;1.60;1.50;;;;;;;22.43;39.29;102621.06;5027001;28;97942;-75
2023/04/18 09:38:04;;;;;;;1.40;1.30;;;;;;;22.43;38.90;102623.81;4995870;28;99520;-75
2023/04/18 09:40:31;;;;;;;1.40;1.30;;;;;;;22.43;39.05;102621.06;5018928;28;96810;-74
2023/04/18 09:42:59;;;;;;;1.80;1.58;;;;;;;22.43;39.23;102623.81;5012165;28;96977;-74
2023/04/18 09:45:25;;;;;;;1.88;1.50;;;;;;;22.44;38.91;102613.72;5025394;28;100095;-75
2023/04/18 09:47:52;;;;;;;1.50;1.40;;;;;;;22.44;39.01;102614.59;5021569;27;96876;-75
2023/04/18 09:50:19;;;;;;;1.40;1.30;;;;;;;22.44;39.10;102620.06;5013794;27;97632;-76
2023/04/18 09:52:47;;;;;;;1.40;1.30;;;;;;;22.44;38.93;102619.19;4999331;28;96998;-75
2023/04/18 09:55:18;;;;;;;1.40;1.30;;;;;;;22.45;39.05;102613.56;5022271;27;98181;-75
2023/04/18 09:57:46;;;;;;;1.52;1.40;;;;;;;22.45;39.29;102615.44;5022669;28;99937;-75
2023/04/18 10:00:23;;;;;;;1.42;1.33;;;;;;;22.45;39.19;102612.72;5023244;28;97003;-75
2023/04/18 10:02:58;;;;;;;1.50;1.40;;;;;;;22.45;39.05;102618.19;5018737;28;98697;-76
2023/04/18 10:05:26;;;;;;;;;;;;;;;22.40;38.88;102615.00;5021712;28;97710;-75
2023/04/18 10:07:53;;;;;;;1.70;1.60;;;;;;;22.38;38.98;102609.69;5021073;28;97773;-75
2023/04/18 10:10:21;;;;;;;1.88;1.38;;;;;;;22.40;39.23;102607.66;5016074;28;96792;-76
2023/04/18 10:12:49;;;;;;;1.50;1.40;;;;;;;22.41;39.25;102605.78;5016576;27;97690;-74
2023/04/18 10:15:19;;;;;;;1.67;1.50;;;;;;;22.42;39.14;102607.53;5018035;28;98454;-75
2023/04/18 10:17:53;;;;;;;1.50;1.38;;;;;;;22.44;39.15;102602.75;5019704;28;97046;-76
2023/04/18 10:20:31;;;;;;;1.70;1.50;;;;;;;22.42;39.04;102596.56;5021180;28;96732;-77
2023/04/18 10:22:59;;;;;;;1.50;1.40;;;;;;;22.42;39.29;102599.31;5020046;28;96832;-76
2023/04/18 10:25:38;;;;;;;1.50;1.38;;;;;;;22.45;39.11;102604.50;5015992;28;97169;-75
2023/04/18 10:28:06;;;;;;;1.67;1.40;;;;;;;22.44;38.98;102608.25;5023626;28;99825;-76
2023/04/18 10:30:41;;;;;;;1.30;1.20;;;;;;;22.45;38.97;102607.22;5025182;27;97012;-75
2023/04/18 10:33:32;;;;;;;1.40;1.30;;;;;;;22.44;39.08;102605.50;5011473;27;97008;-75
2023/04/18 10:36:04;;;;;;;1.30;1.20;;;;;;;22.42;39.10;102605.66;5022012;28;97462;-75
2023/04/18 10:38:32;;;;;;;1.60;1.50;;;;;;;22.42;39.26;102611.13;5016988;28;96876;-75
2023/04/18 10:41:15;;;;;;;1.45;1.35;;;;;;;22.43;39.14;102607.38;5017537;27;99107;-75
2023/04/18 10:44:13;;;;;;;1.35;1.25;;;;;;;22.42;38.98;102605.66;5022714;28;96690;-75
2023/04/18 10:46:49;;;;;;;1.33;1.23;;;;;;;22.40;39.04;102609.53;5008739;28;97028;-75
2023/04/18 10:49:51;;;;;;;1.40;1.30;;;;;;;22.40;39.26;102604.06;5023950;28;98838;-75
2023/04/18 10:52:18;;;;;;;1.33;1.23;;;;;;;22.37;39.04;102610.69;5025772;28;97220;-75
2023/04/18 10:54:54;;;;;;;1.67;1.40;;;;;;;22.39;38.85;102605.06;5015039;27;96946;-75
2023/04/18 10:57:25;;;;;;;1.42;1.33;;;;;;;22.38;39.02;102603.34;5023863;28;96869;-76
2023/04/18 10:59:51;;;;;;;1.17;1.08;;;;;;;22.38;38.94;102603.34;5024857;28;96722;-76
2023/04/18 11:02:29;;;;;;;1.40;1.30;;;;;;;22.39;39.21;102607.81;5023094;28;98499;-76
2023/04/18 11:05:00;;;;;;;1.30;1.20;;;;;;;22.38;39.02;102603.34;5008981;28;96852;-76
2023/04/18 11:07:38;;;;;;;1.50;1.30;;;;;;;22.37;38.98;102604.34;5028508;28;98388;-76
2023/04/18 11:10:07;;;;;;;1.30;1.20;;;;;;;22.38;39.21;102600.59;5011246;28;99838;-76
2023/04/18 11:12:36;;;;;;;1.40;1.30;;;;;;;22.37;39.02;102604.34;5021908;28;96800;-76
2023/04/18 11:15:10;;;;;;;1.52;1.42;;;;;;;22.38;38.98;102600.59;5029249;28;96829;-76
2023/04/18 11:17:40;;;;;;;1.50;1.40;;;;;;;22.37;39.17;102597.00;5022030;27;97327;-75
2023/04/18 11:20:13;;;;;;;1.35;1.25;;;;;;;22.37;38.94;102599.75;5020572;28;97894;-75
2023/04/18 11:22:45;;;;;;;1.27;1.17;;;;;;;22.37;39.06;102593.41;5037843;27;97045;-75
2023/04/18 11:25:12;;;;;;;1.50;1.20;;;;;;;22.37;38.94;102590.66;5025514;28;97076;-75
2023/04/18 11:27:44;;;;;;;1.20;1.10;;;;;;;22.37;38.92;102597.00;5017991;28;96980;-76
2023/04/18 11:30:11;;;;;;;1.63;1.27;;;;;;;22.37;39.10;102590.66;5018410;28;97542;-75
2023/04/18 11:32:38;;;;;;;1.38;1.27;;;;;;;22.37;39.16;102588.78;5018239;28;96742;-76